Time;durP1;ratioP1;P1;durP2;ratioP2;P2;SDS_P1;SDS_P2;PMS_P1;PMS_P2;Temp;Humidity;BMP_temperature;BMP_pressure;BME280_temperature;BME280_humidity;BME280_pressure;Samples;Min_cycle;Max_cycle;Signal;HPM_P1;HPM_P2
2022/11/05 00:10:05;;;;;;;5.95;4.10;;;;;;;6.28;97.29;101435.25;4954551;28;20151;-74
2022/11/05 00:17:58;;;;;;;8.60;3.47;;;;;;;6.10;95.81;101445.06;4959010;28;20026;-73
2022/11/05 00:20:24;;;;;;;8.27;3.60;;;;;;;6.05;95.72;101448.91;4970604;28;20042;-73
2022/11/05 00:25:33;;;;;;;9.82;3.60;;;;;;;5.93;95.62;101444.06;4953384;28;20031;-73
2022/11/05 00:28:01;;;;;;;4.65;3.53;;;;;;;5.89;95.68;101446.88;4953121;28;20109;-73
2022/11/05 00:30:27;;;;;;;9.15;4.22;;;;;;;5.83;95.68;101452.53;4938933;28;20464;-73
2022/11/05 00:32:52;;;;;;;5.28;3.80;;;;;;;5.78;95.51;101459.97;4971032;28;20092;-73
2022/11/05 00:35:21;;;;;;;5.32;3.33;;;;;;;5.72;95.18;101471.00;4967414;28;20026;-74
2022/11/05 00:37:47;;;;;;;6.70;3.60;;;;;;;5.67;96.11;101464.91;4952962;29;20403;-73
2022/11/05 00:40:13;;;;;;;4.65;3.42;;;;;;;5.65;95.78;101463.25;4968105;28;20039;-74
2022/11/05 00:45:27;;;;;;;5.03;3.42;;;;;;;5.54;94.64;101460.97;4958776;28;20406;-74
2022/11/05 00:50:37;;;;;;;4.82;3.10;;;;;;;5.44;94.80;101476.66;4959001;28;20043;-74
2022/11/05 00:53:02;;;;;;;5.28;3.17;;;;;;;5.40;94.65;101476.84;4971585;28;20035;-74
2022/11/05 00:55:39;;;;;;;4.72;3.08;;;;;;;5.38;95.20;101483.19;4972432;28;20405;-74
2022/11/05 00:58:07;;;;;;;4.78;3.15;;;;;;;5.33;95.05;101478.94;4971822;28;20043;-74
2022/11/05 01:00:35;;;;;;;4.40;3.17;;;;;;;5.28;94.81;101481.81;4968097;28;20348;-74
2022/11/05 01:03:12;;;;;;;6.43;3.83;;;;;;;5.23;94.71;101480.25;4952780;29;20068;-74
2022/11/05 01:05:41;;;;;;;6.60;3.58;;;;;;;5.20;94.53;101481.25;4959651;28;20348;-74
2022/11/05 01:08:08;;;;;;;4.68;3.22;;;;;;;5.15;94.66;101488.63;4971589;28;20457;-73
2022/11/05 01:10:39;;;;;;;7.90;3.67;;;;;;;5.12;94.57;101494.16;4952705;29;20662;-74
2022/11/05 01:13:04;;;;;;;6.75;3.30;;;;;;;5.06;94.17;101495.28;4952721;28;20479;-74
2022/11/05 01:15:29;;;;;;;4.60;3.25;;;;;;;5.00;94.55;101495.53;4953026;28;20115;-74
2022/11/05 01:17:55;;;;;;;5.85;3.40;;;;;;;4.98;94.75;101497.38;4952649;28;20066;-73
2022/11/05 01:20:20;;;;;;;8.20;3.22;;;;;;;4.95;94.48;101504.72;4952629;28;20038;-73
2022/11/05 01:22:46;;;;;;;7.97;3.38;;;;;;;4.90;94.30;101510.31;4950709;29;20398;-73
2022/11/05 01:25:11;;;;;;;6.15;2.60;;;;;;;4.86;94.25;101508.66;4952514;28;20462;-74
2022/11/05 01:27:36;;;;;;;5.47;3.30;;;;;;;4.80;94.88;101511.56;4950985;29;20427;-73
2022/11/05 01:30:04;;;;;;;5.60;3.65;;;;;;;4.76;94.48;101510.81;4952041;29;20039;-74
2022/11/05 01:32:30;;;;;;;7.82;3.58;;;;;;;4.75;95.56;101510.84;4971029;28;20039;-73
2022/11/05 01:34:55;;;;;;;5.75;3.75;;;;;;;4.74;95.84;101522.59;4970098;28;20509;-74
2022/11/05 01:37:20;;;;;;;8.85;3.22;;;;;;;4.74;95.77;101519.88;4957343;28;20033;-73
2022/11/05 01:39:46;;;;;;;5.38;3.90;;;;;;;4.74;97.14;101503.72;4957759;28;20126;-73
2022/11/05 01:42:18;;;;;;;6.18;3.97;;;;;;;4.81;97.12;101516.03;4951980;29;20070;-73
2022/11/05 01:44:53;;;;;;;5.68;4.00;;;;;;;4.90;98.08;101521.09;4950592;29;20035;-73
2022/11/05 01:47:36;;;;;;;7.07;4.03;;;;;;;4.92;97.40;101521.00;4967860;28;20043;-74
2022/11/05 01:50:21;;;;;;;7.78;4.13;;;;;;;4.91;97.82;101517.44;4968955;28;20096;-74
2022/11/05 01:52:48;;;;;;;6.95;3.55;;;;;;;4.88;97.45;101514.84;4950539;29;20150;-74
2022/11/05 01:55:18;;;;;;;11.95;4.68;;;;;;;4.92;98.51;101523.72;4964151;28;20085;-74
2022/11/05 01:57:44;;;;;;;6.43;4.07;;;;;;;4.92;98.10;101519.19;4968645;28;20490;-74
2022/11/05 02:00:10;;;;;;;7.18;4.35;;;;;;;4.95;98.70;101518.22;4968886;28;20051;-74
2022/11/05 02:02:38;;;;;;;8.48;4.53;;;;;;;4.95;98.58;101515.53;4949970;29;20507;-73
2022/11/05 02:05:05;;;;;;;10.80;5.18;;;;;;;4.95;98.84;101511.00;4953375;28;20121;-74
2022/11/05 02:07:32;;;;;;;7.90;4.28;;;;;;;4.94;99.02;101503.81;4969930;28;20058;-74
2022/11/05 02:10:02;;;;;;;7.72;4.20;;;;;;;4.94;99.08;101505.66;4956511;28;20112;-74
2022/11/05 02:12:28;;;;;;;7.25;3.97;;;;;;;4.95;99.05;101502.03;4951974;29;20094;-74
2022/11/05 02:14:55;;;;;;;8.73;4.80;;;;;;;4.94;98.94;101498.44;4950397;29;20125;-74
2022/11/05 02:17:28;;;;;;;8.80;4.10;;;;;;;4.93;99.47;101499.38;4952347;28;20535;-74
2022/11/05 02:20:12;;;;;;;12.68;4.20;;;;;;;4.94;99.43;101498.44;4968704;28;20050;-74
2022/11/05 02:22:55;;;;;;;8.93;4.05;;;;;;;4.96;99.84;101510.06;4951305;29;20039;-74
2022/11/05 02:25:56;;;;;;;8.50;4.50;;;;;;;4.97;100.00;101506.41;4969057;28;20046;-74
2022/11/05 02:28:34;;;;;;;7.05;4.45;;;;;;;4.97;99.41;101502.84;4970589;28;20039;-74
2022/11/05 02:31:06;;;;;;;9.45;4.05;;;;;;;4.92;99.26;101504.84;4967593;28;20042;-74
2022/11/05 02:34:11;;;;;;;6.88;4.80;;;;;;;4.89;99.22;101503.13;4970734;28;20034;-74
2022/11/05 02:36:49;;;;;;;7.03;4.72;;;;;;;4.83;99.15;101496.16;4966573;28;20045;-73
2022/11/05 02:39:32;;;;;;;7.20;5.15;;;;;;;4.84;99.98;101497.03;4962177;28;20043;-74
2022/11/05 02:42:08;;;;;;;10.05;4.57;;;;;;;4.81;99.55;101505.25;4951122;29;20075;-73
2022/11/05 02:44:51;;;;;;;7.68;4.20;;;;;;;4.76;99.24;101502.75;4970367;28;20109;-73
2022/11/05 02:47:32;;;;;;;5.57;4.10;;;;;;;4.67;98.72;101494.13;4953071;28;20422;-74
2022/11/05 02:50:10;;;;;;;8.30;5.00;;;;;;;4.71;99.19;101506.50;4952040;28;20340;-74
2022/11/05 02:52:43;;;;;;;7.60;4.65;;;;;;;4.69;99.52;101495.81;4969101;28;20101;-74
2022/11/05 02:55:20;;;;;;;8.30;4.90;;;;;;;4.69;99.86;101501.19;4951194;28;20073;-73
2022/11/05 02:57:46;;;;;;;8.18;4.50;;;;;;;4.66;99.49;101498.59;4950880;28;20027;-74
2022/11/05 03:00:45;;;;;;;10.40;5.80;;;;;;;4.68;99.97;101499.44;4950482;28;20043;-73
2022/11/05 03:03:21;;;;;;;11.93;4.75;;;;;;;4.63;99.32;101490.66;4950283;29;20047;-74
2022/11/05 03:05:54;;;;;;;11.02;5.38;;;;;;;4.64;99.97;101497.78;4958208;28;20055;-74
2022/11/05 03:09:06;;;;;;;10.15;5.32;;;;;;;4.66;99.90;101492.34;4983466;28;20149;-74
2022/11/05 03:11:45;;;;;;;11.30;5.60;;;;;;;4.64;99.63;101487.00;4914746;28;20057;-74
2022/11/05 03:14:23;;;;;;;8.18;5.75;;;;;;;4.61;99.48;101495.19;4940605;28;20041;-74
2022/11/05 03:16:58;;;;;;;8.80;5.50;;;;;;;4.56;99.06;101497.19;4956834;28;20801;-74
2022/11/05 03:19:37;;;;;;;13.88;5.70;;;;;;;4.55;99.37;101501.72;4949563;29;20038;-74
2022/11/05 03:22:15;;;;;;;11.07;6.28;;;;;;;4.51;100.00;101493.78;4951018;28;20459;-73
2022/11/05 03:24:48;;;;;;;14.02;6.13;;;;;;;4.52;100.00;101495.53;4962024;28;20039;-74
2022/11/05 03:27:18;;;;;;;8.90;6.05;;;;;;;4.51;100.00;101501.88;4968512;28;20041;-74
2022/11/05 03:29:57;;;;;;;8.77;6.57;;;;;;;4.44;100.00;101494.97;4967991;28;20035;-74
2022/11/05 03:32:26;;;;;;;9.75;6.07;;;;;;;4.46;99.85;101504.75;4950588;28;20073;-74
2022/11/05 03:35:07;;;;;;;8.18;5.82;;;;;;;4.42;99.49;101507.59;4950250;28;20102;-73
2022/11/05 03:37:37;;;;;;;8.00;5.95;;;;;;;4.37;99.38;101505.06;4958314;28;20045;-73
2022/11/05 03:40:07;;;;;;;10.45;5.47;;;;;;;4.33;98.51;101512.38;4968647;28;20117;-73
2022/11/05 03:42:36;;;;;;;9.85;5.30;;;;;;;4.28;98.44;101505.41;4967778;28;20043;-73
2022/11/05 03:45:09;;;;;;;8.50;5.10;;;;;;;4.23;98.46;101508.25;4967906;28;20045;-73
2022/11/05 03:47:36;;;;;;;;;;;;;;;4.23;97.87;101516.34;4969114;28;20089;-73
2022/11/05 03:50:39;;;;;;;8.10;5.53;;;;;;;4.20;98.60;101507.50;4968139;28;20354;-74
2022/11/05 03:53:27;;;;;;;10.98;5.32;;;;;;;4.17;99.18;101510.31;4967620;28;20088;-73
2022/11/05 03:56:01;;;;;;;8.43;6.07;;;;;;;4.14;99.25;101511.28;4969048;28;20042;-74
2022/11/05 03:58:28;;;;;;;8.57;6.00;;;;;;;4.11;99.36;101507.84;4967781;28;20043;-73
2022/11/05 04:00:54;;;;;;;13.10;7.32;;;;;;;4.06;99.11;101499.91;4964182;28;20497;-73
2022/11/05 04:03:19;;;;;;;11.93;6.10;;;;;;;4.02;98.75;101504.53;4949903;29;20035;-73
2022/11/05 04:13:22;;;;;;;13.55;8.00;;;;;;;4.02;99.38;101512.59;4954325;28;20051;-73
2022/11/05 04:13:58;;;;;;;10.95;7.30;;;;;;;4.03;99.55;101518.84;4950203;28;20483;-74
2022/11/05 04:19:07;;;;;;;13.45;8.07;;;;;;;3.98;100.00;101528.91;4968205;28;20486;-73
2022/11/05 04:24:18;;;;;;;15.30;8.25;;;;;;;3.97;100.00;101528.03;4950036;28;20081;-72
2022/11/05 04:26:44;;;;;;;14.35;8.50;;;;;;;3.98;100.00;101529.78;4955129;28;20136;-73
2022/11/05 04:31:54;;;;;;;13.73;8.38;;;;;;;4.00;100.00;101530.59;4953959;28;20058;-73
2022/11/05 04:34:22;;;;;;;14.98;9.48;;;;;;;3.99;100.00;101534.22;4953269;28;20089;-73
2022/11/05 04:36:49;;;;;;;18.20;8.43;;;;;;;4.00;100.00;101530.59;4966642;28;20470;-73
2022/11/05 04:39:16;;;;;;;17.50;9.77;;;;;;;4.01;100.00;101536.84;4963921;28;20463;-73
2022/11/05 04:41:42;;;;;;;17.65;8.35;;;;;;;3.98;100.00;101534.28;4951760;29;20420;-73
2022/11/05 04:44:08;;;;;;;18.38;9.25;;;;;;;3.95;100.00;101537.94;4951690;29;20051;-73
2022/11/05 04:46:33;;;;;;;15.02;8.40;;;;;;;3.92;100.00;101537.19;4969550;28;20035;-73
2022/11/05 04:48:58;;;;;;;12.43;8.82;;;;;;;3.92;100.00;101540.78;4954952;28;20049;-73
2022/11/05 04:51:26;;;;;;;17.35;9.43;;;;;;;3.91;100.00;101533.59;4970513;28;20035;-74
2022/11/05 04:53:51;;;;;;;14.07;8.95;;;;;;;3.94;100.00;101544.28;4967116;28;20387;-74
2022/11/05 04:56:20;;;;;;;13.48;9.32;;;;;;;3.94;100.00;101543.41;4952974;29;20054;-74
2022/11/05 04:58:46;;;;;;;15.80;9.43;;;;;;;3.95;100.00;101551.41;4952794;28;20055;-74
2022/11/05 05:01:17;;;;;;;17.23;9.57;;;;;;;3.96;100.00;101554.97;4953091;28;20027;-74
2022/11/05 05:03:44;;;;;;;13.95;9.60;;;;;;;3.96;100.00;101555.84;4950752;29;20109;-73
2022/11/05 05:06:10;;;;;;;18.70;9.45;;;;;;;3.96;100.00;101554.97;4965250;28;20513;-74
2022/11/05 05:08:35;;;;;;;20.40;11.18;;;;;;;3.97;100.00;101557.66;4969100;28;20031;-73
2022/11/05 05:11:03;;;;;;;18.27;10.10;;;;;;;3.98;100.00;101556.72;4952822;29;20122;-74
2022/11/05 05:13:29;;;;;;;18.30;9.70;;;;;;;3.98;100.00;101559.41;4952992;28;20384;-74
2022/11/05 05:15:54;;;;;;;16.42;10.55;;;;;;;3.96;100.00;101554.97;4957743;28;20037;-73
2022/11/05 05:18:20;;;;;;;16.45;10.43;;;;;;;3.94;100.00;101549.66;4971919;28;20130;-73
2022/11/05 05:23:29;;;;;;;18.70;10.20;;;;;;;3.94;100.00;101559.56;4971143;28;20069;-73
2022/11/05 05:25:58;;;;;;;22.35;10.25;;;;;;;3.92;100.00;101561.44;4972154;28;20121;-73
2022/11/05 05:28:23;;;;;;;13.65;9.20;;;;;;;3.88;100.00;101560.63;4960547;28;20039;-74
2022/11/05 05:30:48;;;;;;;17.88;8.05;;;;;;;3.84;100.00;101567.94;4957421;28;20174;-73
2022/11/05 05:33:14;;;;;;;20.20;10.13;;;;;;;3.81;100.00;101576.09;4971333;28;20030;-74
2022/11/05 05:35:39;;;;;;;18.50;9.43;;;;;;;3.83;100.00;101568.00;4968018;28;20057;-74
2022/11/05 05:38:04;;;;;;;19.52;10.68;;;;;;;3.83;100.00;101558.09;4982988;28;20325;-73
2022/11/05 05:40:30;;;;;;;15.75;9.93;;;;;;;3.87;100.00;101572.34;4952739;28;20027;-73
2022/11/05 05:42:55;;;;;;;16.35;10.68;;;;;;;3.82;100.00;101567.13;4952366;29;20036;-73
2022/11/05 05:45:21;;;;;;;21.30;9.80;;;;;;;3.85;100.00;101568.81;4961833;28;20031;-73
2022/11/05 05:47:46;;;;;;;15.90;9.48;;;;;;;3.83;100.00;101573.38;4966514;28;20463;-73
2022/11/05 05:50:11;;;;;;;19.42;9.90;;;;;;;3.79;100.00;101567.19;4953387;28;20045;-73
2022/11/05 05:52:37;;;;;;;14.38;9.43;;;;;;;3.78;100.00;101576.22;4970911;28;20056;-73
2022/11/05 05:55:02;;;;;;;22.05;10.43;;;;;;;3.78;100.00;101581.59;4969240;28;20540;-73
2022/11/05 05:57:28;;;;;;;15.68;10.27;;;;;;;3.79;100.00;101574.41;4965335;28;20483;-73
2022/11/05 05:59:53;;;;;;;20.50;10.25;;;;;;;3.78;100.00;101578.03;4963558;28;20077;-73
2022/11/05 06:02:19;;;;;;;15.77;9.20;;;;;;;3.76;100.00;101575.38;4969767;28;20386;-73
2022/11/05 06:04:44;;;;;;;19.10;10.00;;;;;;;3.75;100.00;101576.31;4968984;28;20053;-73
2022/11/05 06:07:09;;;;;;;17.83;10.20;;;;;;;3.78;100.00;101575.34;4955164;28;20117;-74
2022/11/05 06:09:35;;;;;;;19.73;10.75;;;;;;;3.80;100.00;101578.84;4952295;28;20062;-74
2022/11/05 06:12:00;;;;;;;17.65;10.10;;;;;;;3.81;100.00;101569.84;4951441;29;20049;-73
2022/11/05 06:14:25;;;;;;;26.35;11.27;;;;;;;3.82;100.00;101571.59;4951898;29;20031;-74
2022/11/05 06:16:51;;;;;;;17.30;10.45;;;;;;;3.81;100.00;101584.16;4952013;28;20031;-73
2022/11/05 06:19:16;;;;;;;24.42;10.23;;;;;;;3.82;100.00;101585.03;4965680;28;20031;-74
2022/11/05 06:21:41;;;;;;;17.70;9.77;;;;;;;3.83;100.00;101581.44;4965750;28;20114;-73
2022/11/05 06:24:07;;;;;;;17.48;10.52;;;;;;;3.82;100.00;101585.03;4943273;28;20031;-73
2022/11/05 06:26:32;;;;;;;15.65;9.95;;;;;;;3.81;100.00;101586.84;4976254;28;20109;-73
2022/11/05 06:28:58;;;;;;;15.90;9.43;;;;;;;3.80;100.00;101585.09;4958679;28;20023;-73
2022/11/05 06:31:24;;;;;;;21.58;11.38;;;;;;;3.81;100.00;101591.38;4958695;28;20067;-73
2022/11/05 06:33:49;;;;;;;17.63;10.60;;;;;;;3.79;100.00;101582.47;4960416;28;20027;-73
2022/11/05 06:36:16;;;;;;;16.00;9.73;;;;;;;3.81;100.00;101588.66;4962391;28;20047;-73
2022/11/05 06:38:42;;;;;;;15.50;9.35;;;;;;;3.81;100.00;101594.94;4961329;28;20180;-73
2022/11/05 06:41:07;;;;;;;20.55;10.68;;;;;;;3.80;100.00;101586.91;4959977;28;20106;-73
2022/11/05 06:43:33;;;;;;;14.85;9.80;;;;;;;3.77;100.00;101587.88;4961421;28;20049;-73
2022/11/05 06:46:00;;;;;;;16.25;9.95;;;;;;;3.80;100.00;101598.56;4965181;28;20034;-74
2022/11/05 06:48:25;;;;;;;13.52;9.32;;;;;;;3.79;100.00;101599.50;4949812;29;20511;-74
2022/11/05 06:50:51;;;;;;;16.50;9.30;;;;;;;3.77;100.00;101592.38;4951346;28;20095;-73
2022/11/05 06:53:16;;;;;;;21.30;9.95;;;;;;;3.72;100.00;101589.84;4949490;28;20035;-73
2022/11/05 06:55:43;;;;;;;17.33;9.25;;;;;;;3.70;100.00;101594.41;4964960;28;20542;-73
2022/11/05 06:58:09;;;;;;;19.13;9.63;;;;;;;3.70;100.00;101597.09;4950921;28;20126;-73
2022/11/05 07:00:35;;;;;;;15.10;9.98;;;;;;;3.69;100.00;101603.41;4948661;28;20046;-74
2022/11/05 07:03:05;;;;;;;18.77;9.70;;;;;;;3.71;100.00;101606.06;4965562;28;20549;-74
2022/11/05 07:05:32;;;;;;;19.27;9.88;;;;;;;3.69;100.00;101603.41;4965436;28;20533;-74
2022/11/05 07:07:57;;;;;;;16.02;8.50;;;;;;;3.69;100.00;101616.88;4952000;28;20089;-74
2022/11/05 07:10:23;;;;;;;13.80;8.27;;;;;;;3.66;100.00;101616.09;4957707;28;20046;-74
2022/11/05 07:12:48;;;;;;;16.00;8.60;;;;;;;3.67;100.00;101621.41;4957928;28;20133;-73
2022/11/05 07:15:13;;;;;;;12.65;8.70;;;;;;;3.66;100.00;101619.66;4957033;28;20039;-74
2022/11/05 07:17:39;;;;;;;13.63;8.93;;;;;;;3.67;100.00;101615.16;4958806;28;20619;-73
2022/11/05 07:20:06;;;;;;;12.20;8.00;;;;;;;3.66;100.00;101616.09;4960378;28;20490;-73
2022/11/05 07:22:33;;;;;;;19.17;8.82;;;;;;;3.71;100.00;101616.81;4960361;28;20427;-73
2022/11/05 07:24:59;;;;;;;14.55;9.07;;;;;;;3.72;100.00;101618.56;4955664;28;20134;-74
2022/11/05 07:27:24;;;;;;;12.80;8.45;;;;;;;3.76;100.00;101617.53;4974595;28;20554;-73
2022/11/05 07:29:49;;;;;;;15.82;9.00;;;;;;;3.79;100.00;101623.72;4958439;28;20114;-73
2022/11/05 07:32:15;;;;;;;16.15;9.60;;;;;;;3.80;100.00;101619.22;4959595;28;20051;-73
2022/11/05 07:34:40;;;;;;;17.30;9.55;;;;;;;3.87;100.00;101627.97;4954946;28;20039;-73
2022/11/05 07:37:05;;;;;;;18.25;9.48;;;;;;;3.94;100.00;101630.41;4962540;28;20117;-73
2022/11/05 07:39:31;;;;;;;22.73;9.07;;;;;;;3.98;100.00;101628.50;4972103;28;20039;-73
2022/11/05 07:41:58;;;;;;;16.98;8.93;;;;;;;4.05;100.00;101633.63;4958215;28;20390;-74
2022/11/05 07:44:30;;;;;;;13.50;8.48;;;;;;;4.11;100.00;101632.56;4957845;28;20039;-74
2022/11/05 07:46:55;;;;;;;17.60;9.43;;;;;;;4.16;100.00;101649.44;4975886;28;20544;-74
2022/11/05 07:49:22;;;;;;;18.27;9.88;;;;;;;4.19;100.00;101638.56;4971241;28;20028;-74
2022/11/05 07:51:48;;;;;;;15.98;9.52;;;;;;;4.24;100.00;101642.00;4955339;28;20043;-74
2022/11/05 07:54:13;;;;;;;18.55;10.13;;;;;;;4.28;100.00;101643.63;4954454;28;20023;-74
2022/11/05 07:56:38;;;;;;;14.75;9.07;;;;;;;4.34;100.00;101646.16;4960069;28;20118;-75
2022/11/05 07:59:04;;;;;;;16.40;9.52;;;;;;;4.40;100.00;101647.75;4945350;28;20031;-74
2022/11/05 08:01:29;;;;;;;18.13;9.85;;;;;;;4.42;100.00;101645.88;4959213;28;20035;-74
2022/11/05 08:03:54;;;;;;;19.88;9.98;;;;;;;4.49;100.00;101647.44;4950166;28;20047;-74
2022/11/05 08:06:20;;;;;;;17.42;9.88;;;;;;;4.55;100.00;101636.44;4966643;28;20047;-75
2022/11/05 08:08:45;;;;;;;18.33;10.20;;;;;;;4.60;100.00;101638.97;4965765;28;20162;-75
2022/11/05 08:11:11;;;;;;;23.17;9.60;;;;;;;4.66;100.00;101641.44;4948046;29;20438;-74
2022/11/05 08:13:37;;;;;;;17.67;9.80;;;;;;;4.71;100.00;101644.88;4953393;28;20142;-74
2022/11/05 08:16:03;;;;;;;19.17;10.60;;;;;;;4.77;100.00;101638.38;4948405;28;20114;-74
2022/11/05 08:18:30;;;;;;;27.30;11.48;;;;;;;4.78;100.00;101635.63;4931149;29;20050;-74
2022/11/05 08:21:01;;;;;;;23.70;10.95;;;;;;;4.85;100.00;101639.00;4944284;28;20049;-73
2022/11/05 08:23:28;;;;;;;18.02;11.38;;;;;;;4.90;100.00;101645.09;4959419;28;20042;-74
2022/11/05 08:25:55;;;;;;;17.40;10.65;;;;;;;4.95;100.00;101640.41;4945400;28;20476;-74
2022/11/05 08:28:20;;;;;;;21.13;11.18;;;;;;;5.01;100.00;101644.72;4930690;28;20035;-73
2022/11/05 08:30:49;;;;;;;17.85;10.20;;;;;;;5.05;100.00;101638.25;4925433;28;20246;-74
2022/11/05 08:33:15;;;;;;;21.02;10.18;;;;;;;5.10;100.00;101647.06;4928290;28;20034;-73
2022/11/05 08:35:41;;;;;;;20.92;11.18;;;;;;;5.16;100.00;101643.25;4936778;28;20261;-74
2022/11/05 08:38:09;;;;;;;19.20;11.45;;;;;;;5.22;100.00;101646.63;4916609;28;20109;-74
2022/11/05 08:40:36;;;;;;;26.10;12.07;;;;;;;5.30;100.00;101649.88;4914517;28;20370;-74
2022/11/05 08:43:03;;;;;;;19.02;10.45;;;;;;;5.38;100.00;101646.91;4919118;28;20236;-74
2022/11/05 08:45:29;;;;;;;24.15;11.77;;;;;;;5.45;100.00;101645.72;4956659;28;20189;-74
2022/11/05 08:48:03;;;;;;;18.58;11.60;;;;;;;5.55;100.00;101643.56;4923358;28;20548;-73
2022/11/05 08:50:29;;;;;;;24.40;12.27;;;;;;;5.66;100.00;101651.25;4927633;28;20284;-74
2022/11/05 08:52:55;;;;;;;21.77;11.60;;;;;;;5.73;100.00;101645.53;4907946;28;20111;-74
2022/11/05 08:55:21;;;;;;;19.20;12.15;;;;;;;5.86;100.00;101649.50;4958290;28;20047;-74
2022/11/05 08:57:46;;;;;;;19.77;11.27;;;;;;;5.95;100.00;101650.13;4928186;28;20585;-74
2022/11/05 09:00:15;;;;;;;23.75;11.88;;;;;;;6.05;100.00;101649.66;4932786;28;20415;-73
2022/11/05 09:02:40;;;;;;;19.75;11.07;;;;;;;6.13;100.00;101652.94;4934297;28;20700;-74
2022/11/05 09:05:06;;;;;;;20.98;11.30;;;;;;;6.24;100.00;101641.69;4941952;28;20043;-75
2022/11/05 09:07:31;;;;;;;18.83;10.30;;;;;;;6.33;100.00;101643.13;4963963;28;20047;-74
2022/11/05 09:09:57;;;;;;;16.88;10.82;;;;;;;6.41;100.00;101643.69;4943743;28;20041;-74
2022/11/05 09:12:22;;;;;;;16.90;10.15;;;;;;;6.49;100.00;101641.56;4918691;28;20034;-73
2022/11/05 09:14:48;;;;;;;22.63;10.63;;;;;;;6.58;100.00;101648.41;4959261;28;20037;-73
2022/11/05 09:17:18;;;;;;;22.58;10.13;;;;;;;6.65;100.00;101650.75;4969379;28;20359;-73
2022/11/05 09:19:44;;;;;;;21.48;11.68;;;;;;;6.72;99.76;101650.50;4949441;28;20530;-75
2022/11/05 09:22:11;;;;;;;17.60;10.13;;;;;;;6.84;99.97;101642.72;4920851;28;20033;-74
2022/11/05 09:24:41;;;;;;;20.40;10.50;;;;;;;6.97;99.33;101648.47;4927999;28;20050;-74
2022/11/05 09:27:14;;;;;;;33.67;19.58;;;;;;;7.10;99.63;101641.56;4961418;28;20081;-73
2022/11/05 09:29:40;;;;;;;20.48;10.35;;;;;;;7.27;99.44;101642.59;4907610;29;20121;-74
2022/11/05 09:32:07;;;;;;;18.58;9.88;;;;;;;7.35;98.21;101645.84;4899524;28;20593;-74
2022/11/05 09:34:32;;;;;;;16.17;10.27;;;;;;;7.47;98.21;101642.56;4904899;28;20759;-74
2022/11/05 09:36:58;;;;;;;19.27;10.50;;;;;;;7.59;97.46;101639.28;4970724;28;20111;-74
2022/11/05 09:39:23;;;;;;;16.48;10.00;;;;;;;7.76;98.35;101645.72;4961075;28;20093;-74
2022/11/05 09:41:52;;;;;;;18.38;9.65;;;;;;;7.85;96.26;101654.28;4939999;28;20502;-74
2022/11/05 09:44:22;;;;;;;15.15;9.55;;;;;;;7.93;96.01;101654.81;4915393;28;20031;-74
2022/11/05 09:46:57;;;;;;;16.83;8.70;;;;;;;8.05;95.43;101658.72;4951631;28;20066;-74
2022/11/05 09:49:34;;;;;;;16.65;9.45;;;;;;;8.16;95.02;101655.53;4925160;29;20047;-74
2022/11/05 09:52:00;;;;;;;15.85;8.82;;;;;;;8.26;94.99;101653.22;4920848;28;20031;-73
2022/11/05 09:54:30;;;;;;;21.25;9.70;;;;;;;8.35;94.82;101663.63;4933725;28;20463;-74
2022/11/05 09:56:56;;;;;;;16.50;8.95;;;;;;;8.45;94.53;101669.50;4961957;28;20048;-73
2022/11/05 09:59:38;;;;;;;20.33;9.05;;;;;;;8.59;93.64;101662.41;4943673;28;20490;-74
2022/11/05 10:02:21;;;;;;;16.45;8.38;;;;;;;8.76;94.25;101666.06;4954470;28;20073;-74
2022/11/05 10:04:50;;;;;;;14.82;8.10;;;;;;;8.89;93.12;101667.19;4970295;28;20418;-74
2022/11/05 10:07:20;;;;;;;13.20;7.60;;;;;;;8.93;92.48;101675.09;4951657;28;20134;-74
2022/11/05 10:09:50;;;;;;;15.82;7.60;;;;;;;9.02;92.45;101681.00;4951762;28;20098;-73
2022/11/05 10:12:25;;;;;;;10.13;7.25;;;;;;;9.08;91.79;101676.09;4950151;29;20074;-74
2022/11/05 10:15:22;;;;;;;12.13;7.15;;;;;;;9.17;91.11;101685.59;4950045;28;20035;-74
2022/11/05 10:17:53;;;;;;;15.18;6.63;;;;;;;9.20;90.11;101685.47;4951255;28;20138;-73
2022/11/05 10:20:35;;;;;;;15.27;6.65;;;;;;;9.24;90.46;101691.63;4950908;28;20352;-73
2022/11/05 10:23:15;;;;;;;13.50;7.72;;;;;;;9.30;90.29;101700.28;4949467;29;20043;-73
2022/11/05 10:25:44;;;;;;;13.00;6.53;;;;;;;9.37;89.16;101698.09;4967971;28;20042;-73
2022/11/05 10:28:16;;;;;;;13.52;6.68;;;;;;;9.41;88.41;101700.59;4968486;28;20042;-73
2022/11/05 10:30:45;;;;;;;11.25;7.50;;;;;;;9.49;89.77;101702.91;4968647;28;20125;-73
2022/11/05 10:33:13;;;;;;;13.30;7.28;;;;;;;9.54;89.92;101702.66;4970253;28;20394;-74
2022/11/05 10:35:46;;;;;;;12.70;6.65;;;;;;;9.58;87.65;101702.41;4967973;28;20027;-74
2022/11/05 10:38:13;;;;;;;13.68;6.95;;;;;;;9.62;87.61;101709.41;4968580;28;20035;-73
2022/11/05 10:41:02;;;;;;;9.25;5.68;;;;;;;9.66;88.19;101702.84;4965683;28;20039;-73
2022/11/05 10:43:49;;;;;;;14.00;7.18;;;;;;;9.70;88.53;101701.72;4968391;28;20043;-73
2022/11/05 10:46:37;;;;;;;12.10;6.45;;;;;;;9.69;87.73;101697.22;4967317;28;20117;-74
2022/11/05 10:49:42;;;;;;;9.02;5.97;;;;;;;9.71;87.66;101698.03;4968466;28;20043;-73
2022/11/05 10:52:25;;;;;;;12.02;7.07;;;;;;;9.76;88.38;101686.06;4968180;28;20367;-74
2022/11/05 10:54:53;;;;;;;12.65;6.78;;;;;;;9.80;87.24;101688.50;4966500;28;20038;-73
2022/11/05 10:57:36;;;;;;;8.95;6.32;;;;;;;9.82;86.61;101689.28;4966438;28;20047;-74
2022/11/05 11:00:13;;;;;;;22.80;7.57;;;;;;;9.84;86.20;101690.09;4968945;28;20038;-73
2022/11/05 11:02:41;;;;;;;12.05;6.50;;;;;;;9.90;87.31;101694.31;4951916;28;20035;-73
2022/11/05 11:05:09;;;;;;;9.73;6.90;;;;;;;9.99;88.21;101691.06;4949774;28;20082;-73
2022/11/05 11:07:35;;;;;;;14.40;7.15;;;;;;;10.05;86.80;101687.13;4966344;28;20102;-73
2022/11/05 11:10:01;;;;;;;19.05;7.15;;;;;;;10.12;87.14;101693.97;4967835;28;20466;-73
2022/11/05 11:12:35;;;;;;;10.85;6.53;;;;;;;10.15;86.36;101691.06;4965990;28;20450;-73
2022/11/05 11:15:32;;;;;;;14.73;7.03;;;;;;;10.18;86.46;101697.22;4949600;28;20043;-73
2022/11/05 11:18:16;;;;;;;14.63;7.55;;;;;;;10.23;85.63;101689.66;4957475;28;20054;-73
2022/11/05 11:20:44;;;;;;;16.17;7.97;;;;;;;10.31;85.96;101691.13;4961053;28;20137;-73
2022/11/05 11:23:11;;;;;;;11.50;7.15;;;;;;;10.38;86.35;101670.75;4960000;28;20066;-73
2022/11/05 11:25:51;;;;;;;16.83;7.68;;;;;;;10.47;85.89;101681.09;4958093;28;20031;-73
2022/11/05 11:28:21;;;;;;;14.45;7.55;;;;;;;10.57;85.77;101671.41;4948891;28;20407;-73
2022/11/05 11:31:10;;;;;;;15.73;7.90;;;;;;;10.69;86.58;101672.53;4959852;28;20491;-74
2022/11/05 11:33:37;;;;;;;12.52;6.45;;;;;;;10.71;82.01;101663.28;4964890;28;20497;-73
2022/11/05 11:36:04;;;;;;;13.52;7.55;;;;;;;10.72;82.86;101672.31;4962741;28;20256;-73
2022/11/05 11:38:33;;;;;;;14.25;6.63;;;;;;;10.69;82.80;101669.81;4957688;28;20121;-73
2022/11/05 11:41:02;;;;;;;15.43;7.70;;;;;;;10.75;83.06;101668.56;4955683;28;20034;-73
2022/11/05 11:43:32;;;;;;;12.63;7.00;;;;;;;10.89;84.06;101672.19;4965995;28;20043;-73
2022/11/05 11:45:58;;;;;;;17.17;7.80;;;;;;;11.08;81.47;101665.63;4964025;28;20453;-73
2022/11/05 11:48:27;;;;;;;11.05;6.93;;;;;;;11.24;81.95;101672.78;4964146;28;20515;-73
2022/11/05 11:50:54;;;;;;;10.95;6.30;;;;;;;11.44;80.83;101674.25;4963792;28;20053;-73
2022/11/05 11:53:19;;;;;;;10.38;6.20;;;;;;;11.60;79.60;101674.16;4966577;28;20035;-73
2022/11/05 11:55:53;;;;;;;10.50;5.82;;;;;;;11.76;78.91;101660.44;4963622;28;20449;-74
2022/11/05 11:58:20;;;;;;;12.00;5.80;;;;;;;11.96;77.25;101667.34;4963735;28;20035;-74
2022/11/05 12:01:01;;;;;;;11.23;5.70;;;;;;;12.06;76.48;101663.03;4980089;28;20166;-73
2022/11/05 12:03:42;;;;;;;11.63;5.72;;;;;;;12.22;77.64;101666.53;4956179;28;20035;-73
2022/11/05 12:06:19;;;;;;;9.50;5.15;;;;;;;12.30;75.18;101649.63;4961459;28;20101;-73
2022/11/05 12:09:02;;;;;;;12.48;5.50;;;;;;;12.40;75.05;101648.03;4985118;28;20046;-73
2022/11/05 12:11:40;;;;;;;11.43;5.93;;;;;;;12.59;76.33;101657.69;4964505;28;20151;-73
2022/11/05 12:14:22;;;;;;;9.18;5.38;;;;;;;12.67;74.81;101658.06;4979496;28;20031;-73